createdAt,value
2022-08-16T04:03:12.192Z,28.00
2022-08-16T04:04:13.077Z,32.00
2022-08-16T04:05:13.069Z,36.00
2022-08-16T04:06:13.079Z,44.00
2022-08-16T04:07:13.044Z,48.00
2022-08-16T04:08:22.420Z,52.00
2022-08-16T04:09:13.020Z,64.00
2022-08-16T04:10:37.019Z,72.00
2022-08-16T04:11:16.385Z,80.00
2022-08-16T04:12:54.536Z,92.00
2022-08-16T04:13:20.395Z,100.00
2022-08-16T04:14:33.019Z,112.00
2022-08-16T04:15:14.254Z,124.00
2022-08-16T04:16:27.700Z,140.00
2022-08-16T04:17:12.927Z,156.00
2022-08-16T04:18:12.922Z,172.00
2022-08-16T04:19:12.908Z,188.00
2022-08-16T04:20:23.649Z,204.00
2022-08-16T04:21:12.894Z,224.00
2022-08-16T04:22:12.878Z,244.00
2022-08-16T04:23:12.862Z,260.00
2022-08-16T04:24:12.847Z,284.00
2022-08-16T04:25:12.845Z,304.00
2022-08-16T04:26:16.728Z,328.00
2022-08-16T04:27:12.809Z,352.00
2022-08-16T04:28:51.922Z,376.00
2022-08-16T04:29:15.070Z,396.00
2022-08-16T04:30:12.790Z,424.00
2022-08-16T04:31:12.780Z,452.00
2022-08-16T04:32:12.797Z,476.00
2022-08-16T04:33:12.824Z,504.00
2022-08-16T04:34:13.037Z,532.00
2022-08-16T04:35:16.298Z,556.00
2022-08-16T04:36:12.751Z,588.00
2022-08-16T04:37:12.719Z,616.00
2022-08-16T04:38:20.928Z,640.00
2022-08-16T04:39:12.691Z,672.00
2022-08-16T04:40:20.529Z,700.00
2022-08-16T04:41:12.679Z,732.00
2022-08-16T04:42:12.647Z,764.00
2022-08-16T04:43:19.187Z,792.00
2022-08-16T04:44:32.831Z,820.00
2022-08-16T04:45:12.640Z,852.00
2022-08-16T04:46:26.562Z,884.00
2022-08-16T04:47:21.128Z,912.00
2022-08-16T04:48:22.025Z,944.00
2022-08-16T04:49:12.579Z,972.00
2022-08-16T04:50:12.563Z,1000.00
2022-08-16T04:51:12.833Z,1032.00
2022-08-16T04:52:33.819Z,1060.00
2022-08-16T04:53:12.539Z,1092.00
2022-08-16T04:54:12.520Z,1124.00
2022-08-16T04:55:12.515Z,1152.00
2022-08-16T04:56:12.520Z,1184.00
2022-08-16T04:57:12.490Z,1212.00
2022-08-16T04:58:45.275Z,1240.00
2022-08-16T04:59:12.456Z,1272.00
2022-08-16T05:00:31.304Z,1300.00
2022-08-16T05:01:12.433Z,1328.00
2022-08-16T05:02:41.107Z,1356.00
2022-08-16T05:03:12.468Z,1388.00
2022-08-16T05:04:19.263Z,1416.00
2022-08-16T05:05:17.856Z,1448.00
2022-08-16T05:06:12.409Z,1476.00
2022-08-16T05:07:20.313Z,1508.00
2022-08-16T05:08:29.424Z,1536.00
2022-08-16T05:09:12.357Z,1564.00
2022-08-16T05:10:20.027Z,1588.00
2022-08-16T05:11:12.343Z,1612.00
2022-08-16T05:12:21.975Z,1640.00
2022-08-16T05:13:15.741Z,1668.00
2022-08-16T05:14:12.295Z,1692.00
2022-08-16T05:15:12.308Z,1720.00
2022-08-16T05:16:19.898Z,1744.00
2022-08-16T05:17:12.280Z,1772.00
2022-08-16T05:18:16.193Z,1800.00
2022-08-16T05:19:16.286Z,1824.00
2022-08-16T05:20:39.535Z,1852.00
2022-08-16T05:21:12.662Z,1876.00
2022-08-16T05:22:18.004Z,1900.00
2022-08-16T05:24:24.906Z,1956.00
2022-08-16T05:25:24.375Z,1976.00
2022-08-16T05:26:23.910Z,1996.00
2022-08-16T05:27:23.882Z,2020.00
2022-08-16T05:28:37.420Z,2036.00
2022-08-16T05:29:24.958Z,2056.00
2022-08-16T05:30:34.808Z,2076.00
2022-08-16T05:31:29.328Z,2096.00
2022-08-16T05:32:32.511Z,2120.00
2022-08-16T05:33:23.822Z,2140.00
2022-08-16T05:34:23.841Z,2164.00
2022-08-16T05:35:24.439Z,2188.00
2022-08-16T05:36:23.778Z,2208.00
2022-08-16T05:37:24.347Z,2232.00
2022-08-16T05:38:33.181Z,2252.00
2022-08-16T05:39:23.743Z,2276.00
2022-08-16T05:40:24.153Z,2296.00
2022-08-16T05:41:23.986Z,2316.00
2022-08-16T05:42:35.582Z,2336.00
2022-08-16T05:43:23.956Z,2352.00
2022-08-16T05:44:24.981Z,2372.00
2022-08-16T05:45:23.919Z,2388.00
2022-08-16T05:46:30.257Z,2408.00
2022-08-16T05:47:23.688Z,2428.00
2022-08-16T05:48:27.005Z,2448.00
2022-08-16T05:49:23.632Z,2472.00
2022-08-16T05:50:28.352Z,2488.00
2022-08-16T05:51:23.671Z,2504.00
2022-08-16T05:52:23.606Z,2520.00
2022-08-16T05:53:24.434Z,2532.00
2022-08-16T05:54:25.497Z,2544.00
2022-08-16T05:55:23.562Z,2556.00
2022-08-16T05:56:23.555Z,2568.00
2022-08-16T05:57:23.545Z,2584.00
2022-08-16T05:58:33.201Z,2600.00
2022-08-16T05:59:23.548Z,2616.00
2022-08-16T06:00:23.525Z,2636.00
2022-08-16T06:01:23.531Z,2652.00
2022-08-16T06:02:23.497Z,2668.00
2022-08-16T06:03:23.523Z,2684.00
2022-08-16T06:04:35.825Z,2696.00
2022-08-16T06:05:23.546Z,2716.00
2022-08-16T06:06:27.926Z,2728.00
2022-08-16T06:07:24.587Z,2744.00
2022-08-16T06:08:32.153Z,2760.00
2022-08-16T06:09:23.443Z,2776.00
2022-08-16T06:10:32.433Z,2792.00
2022-08-16T06:11:25.621Z,2812.00
2022-08-16T06:12:26.888Z,2828.00
2022-08-16T06:13:23.362Z,2848.00
2022-08-16T06:14:23.361Z,2860.00
2022-08-16T06:15:23.353Z,2876.00
2022-08-16T06:16:23.329Z,2884.00
2022-08-16T06:17:23.347Z,2904.00
2022-08-16T06:18:23.302Z,2916.00
2022-08-16T06:19:23.853Z,2936.00
2022-08-16T06:20:25.472Z,2952.00
2022-08-16T06:21:24.112Z,2968.00
2022-08-16T06:22:37.446Z,2988.00
2022-08-16T06:23:23.805Z,3004.00
2022-08-16T06:24:54.540Z,3012.00
2022-08-16T06:25:35.539Z,3028.00
2022-08-16T06:26:23.223Z,3040.00
2022-08-16T06:27:23.858Z,3056.00
2022-08-16T06:28:36.612Z,3068.00
2022-08-16T06:29:23.200Z,3084.00
2022-08-16T06:30:24.304Z,3100.00
2022-08-16T06:31:24.994Z,3112.00
2022-08-16T06:32:27.724Z,3124.00
2022-08-16T06:33:23.924Z,3140.00
2022-08-16T06:34:55.890Z,3152.00
2022-08-16T06:35:23.120Z,3172.00
2022-08-16T06:36:24.157Z,3184.00
2022-08-16T06:37:23.093Z,3204.00
2022-08-16T06:38:33.399Z,3216.00
2022-08-16T06:39:23.159Z,3232.00
2022-08-16T06:40:23.111Z,3248.00
2022-08-16T06:41:23.067Z,3268.00
2022-08-16T06:42:23.057Z,3280.00
2022-08-16T06:43:27.407Z,3296.00
2022-08-16T06:44:24.566Z,3308.00
2022-08-16T06:45:24.083Z,3324.00
2022-08-16T06:46:23.040Z,3340.00
2022-08-16T06:47:23.014Z,3352.00
2022-08-16T06:48:33.092Z,3372.00
2022-08-16T06:49:22.987Z,3388.00
2022-08-16T06:50:29.238Z,3404.00
2022-08-16T06:51:22.946Z,3420.00
2022-08-16T06:52:58.207Z,3436.00
2022-08-16T06:53:22.942Z,3452.00
2022-08-16T06:54:22.914Z,3468.00
2022-08-16T06:55:22.903Z,3484.00
2022-08-16T06:56:23.290Z,3500.00
2022-08-16T06:57:22.883Z,3520.00
2022-08-16T06:58:31.900Z,3536.00
2022-08-16T06:59:25.553Z,3556.00
2022-08-16T07:00:24.437Z,3572.00
2022-08-16T07:01:43.197Z,3592.00
2022-08-16T07:02:33.287Z,3620.00
2022-08-16T07:03:28.026Z,3632.00
2022-08-16T07:04:32.042Z,3652.00
2022-08-16T07:05:27.231Z,3672.00
2022-08-16T07:06:26.618Z,3696.00
2022-08-16T07:07:22.819Z,3716.00
2022-08-16T07:08:22.846Z,3740.00
2022-08-16T07:09:22.751Z,3764.00
2022-08-16T07:10:26.701Z,3780.00
2022-08-16T07:11:47.231Z,3800.00
2022-08-16T07:12:22.716Z,3824.00
2022-08-16T07:13:58.539Z,3852.00
2022-08-16T07:14:27.740Z,3872.00
2022-08-16T07:15:22.680Z,3896.00
2022-08-16T07:16:22.670Z,3928.00
2022-08-16T07:17:22.660Z,3964.00
2022-08-16T07:18:24.499Z,3996.00
2022-08-16T07:19:22.674Z,4028.00
2022-08-16T07:20:35.117Z,4064.00
2022-08-16T07:21:22.611Z,4096.00
2022-08-16T07:22:37.424Z,4140.00
2022-08-16T07:23:37.381Z,4184.00
2022-08-16T07:24:30.077Z,4208.00
2022-08-16T07:25:22.882Z,4212.00
2022-08-16T07:26:25.299Z,4200.00
2022-08-16T07:27:22.549Z,4196.00
2022-08-16T07:28:24.403Z,4208.00
2022-08-16T07:29:22.526Z,4224.00
2022-08-16T07:30:38.985Z,4248.00
2022-08-16T07:31:22.737Z,4280.00
2022-08-16T07:32:29.567Z,4304.00
2022-08-16T07:33:24.409Z,4332.00
2022-08-16T07:34:34.770Z,4356.00
2022-08-16T07:35:22.483Z,4384.00
2022-08-16T07:36:23.487Z,4408.00
2022-08-16T07:37:23.203Z,4428.00
2022-08-16T07:38:33.770Z,4444.00
2022-08-16T07:39:22.443Z,4480.00
2022-08-16T07:40:49.076Z,4512.00
2022-08-16T07:41:22.400Z,4544.00
2022-08-16T07:42:28.607Z,4580.00
2022-08-16T07:43:22.372Z,4612.00
2022-08-16T07:44:22.364Z,4608.00
2022-08-16T07:45:22.349Z,4612.00
2022-08-16T07:46:38.589Z,4640.00
2022-08-16T07:47:24.741Z,4664.00
2022-08-16T07:48:22.326Z,4688.00
2022-08-16T07:49:22.298Z,4720.00
2022-08-16T07:50:56.213Z,4764.00
2022-08-16T07:51:22.825Z,4808.00
2022-08-16T07:52:22.280Z,4844.00
2022-08-16T07:53:22.251Z,4860.00
2022-08-16T07:54:32.314Z,4876.00
2022-08-16T07:55:24.741Z,4900.00
2022-08-16T07:56:22.754Z,4928.00
2022-08-16T07:57:24.165Z,4960.00
2022-08-16T07:58:35.232Z,5000.00
2022-08-16T07:59:22.445Z,5036.00
2022-08-16T08:00:22.234Z,5080.00
2022-08-16T08:01:22.191Z,5116.00
2022-08-16T08:02:22.346Z,5148.00
2022-08-16T08:03:22.160Z,5168.00
2022-08-16T08:04:22.173Z,5176.00
2022-08-16T08:05:35.397Z,5172.00
2022-08-16T08:06:22.119Z,5164.00
2022-08-16T08:07:22.112Z,5152.00
2022-08-16T08:08:50.910Z,5140.00
2022-08-16T08:09:22.148Z,5116.00
2022-08-16T08:10:29.505Z,5096.00
2022-08-16T08:11:23.606Z,5088.00
2022-08-16T08:12:32.042Z,5088.00
2022-08-16T08:13:41.941Z,5112.00
2022-08-16T08:14:29.481Z,5156.00
2022-08-16T08:15:25.225Z,5208.00
2022-08-16T08:16:21.989Z,5264.00
2022-08-16T08:17:22.021Z,5328.00
2022-08-16T08:18:29.774Z,5400.00
2022-08-16T08:19:21.975Z,5484.00
2022-08-16T08:20:27.880Z,5564.00
2022-08-16T08:21:27.210Z,5652.00
2022-08-16T08:22:22.345Z,5716.00
2022-08-16T08:23:21.917Z,5724.00
2022-08-16T08:24:21.917Z,5680.00
2022-08-16T08:25:21.907Z,5580.00
2022-08-16T08:26:21.893Z,5488.00
2022-08-16T08:27:22.959Z,5496.00
2022-08-16T08:28:22.079Z,5572.00
2022-08-16T08:29:23.022Z,5724.00
2022-08-16T08:30:51.738Z,5824.00
2022-08-16T08:31:21.854Z,5928.00
2022-08-16T08:33:00.306Z,6044.00
2022-08-16T08:33:22.024Z,6136.00
2022-08-16T08:34:22.284Z,6204.00
2022-08-16T08:35:26.171Z,6208.00
2022-08-16T08:36:22.432Z,6164.00
2022-08-16T08:37:21.763Z,6168.00
2022-08-16T08:38:45.175Z,6212.00
2022-08-16T08:39:21.747Z,6280.00
2022-08-16T08:40:24.721Z,6348.00
2022-08-16T08:41:28.555Z,6436.00
2022-08-16T08:42:26.592Z,6504.00
2022-08-16T08:43:21.716Z,6552.00
2022-08-16T08:44:29.432Z,6552.00
2022-08-16T08:45:47.306Z,6496.00
2022-08-16T08:46:22.325Z,6504.00
2022-08-16T08:47:21.667Z,6588.00
2022-08-16T08:48:34.111Z,6628.00
2022-08-16T08:49:21.634Z,6652.00
2022-08-16T08:50:31.536Z,6600.00
2022-08-16T08:51:21.637Z,6644.00
2022-08-16T08:52:35.163Z,6724.00
2022-08-16T08:53:21.599Z,6744.00
2022-08-16T08:54:23.026Z,6756.00
2022-08-16T08:55:21.575Z,6776.00
2022-08-16T08:56:23.417Z,6808.00
2022-08-16T08:57:22.917Z,6816.00
2022-08-16T08:58:21.576Z,6860.00
2022-08-16T08:59:22.176Z,6876.00
2022-08-16T09:00:21.613Z,6852.00
2022-08-16T09:01:31.465Z,6860.00
2022-08-16T09:02:22.418Z,6968.00
2022-08-16T09:03:21.508Z,7096.00
2022-08-16T09:04:21.527Z,7136.00
2022-08-16T09:05:22.267Z,7132.00
2022-08-16T09:06:21.446Z,7188.00
2022-08-16T09:07:21.444Z,7260.00
2022-08-16T09:08:22.215Z,7368.00
2022-08-16T09:09:21.454Z,7508.00
2022-08-16T09:10:24.291Z,7872.00
2022-08-16T09:11:21.418Z,9016.00
2022-08-16T09:12:35.393Z,10584.00
2022-08-16T09:13:21.377Z,28640.00
2022-08-16T09:14:24.092Z,53152.00
2022-08-16T09:15:21.509Z,56256.00
2022-08-16T09:17:01.128Z,57184.00
2022-08-16T09:17:47.188Z,63776.00
2022-08-16T09:18:26.294Z,67264.00
2022-08-16T09:19:32.947Z,70272.00
2022-08-16T09:20:23.505Z,68544.00
2022-08-16T09:21:21.303Z,68672.00
2022-08-16T09:22:23.669Z,68448.00
2022-08-16T09:23:21.267Z,71488.00
2022-08-16T09:24:46.769Z,70144.00
2022-08-16T09:25:26.071Z,69312.00
2022-08-16T09:26:44.623Z,69728.00
2022-08-16T09:27:21.272Z,71424.00
2022-08-16T09:29:06.776Z,72384.00
2022-08-16T09:29:23.735Z,70464.00
2022-08-16T09:30:36.381Z,68640.00
2022-08-16T09:31:21.184Z,70784.00
2022-08-16T09:32:28.459Z,71872.00
2022-08-16T09:33:21.415Z,73600.00
2022-08-16T09:34:21.198Z,80032.00
2022-08-16T09:35:21.165Z,95104.00
2022-08-16T09:36:31.845Z,102976.00
2022-08-16T09:37:21.157Z,102848.00
2022-08-16T09:38:31.234Z,106016.00
2022-08-16T09:39:21.110Z,111200.00
2022-08-16T09:40:32.118Z,111936.00
2022-08-16T09:41:21.165Z,109184.00
2022-08-16T09:42:21.453Z,109568.00
2022-08-16T09:43:57.935Z,108608.00
2022-08-16T09:45:10.846Z,108288.00
2022-08-16T09:45:22.268Z,105952.00
2022-08-16T09:46:44.521Z,104576.00
2022-08-16T09:47:23.587Z,103872.00
2022-08-16T09:48:43.903Z,104288.00
2022-08-16T09:49:21.025Z,105024.00
2022-08-16T09:50:22.829Z,92800.00
2022-08-16T09:51:23.445Z,95392.00
2022-08-16T09:52:22.367Z,90560.00
2022-08-16T09:53:20.989Z,81792.00
2022-08-16T09:54:21.155Z,78432.00
2022-08-16T09:55:20.967Z,76576.00
2022-08-16T09:56:20.934Z,66528.00
2022-08-16T09:57:20.939Z,75456.00
2022-08-16T09:58:40.738Z,77152.00
2022-08-16T09:59:20.983Z,74080.00
2022-08-16T10:00:44.204Z,73408.00
2022-08-16T10:01:20.978Z,76608.00
2022-08-16T10:02:25.965Z,78464.00
2022-08-16T10:03:21.000Z,79744.00
2022-08-16T10:04:30.407Z,77952.00
2022-08-16T10:05:20.932Z,74784.00
2022-08-16T10:06:20.861Z,76448.00
2022-08-16T10:07:21.356Z,74624.00
2022-08-16T10:08:26.681Z,73120.00
2022-08-16T10:09:20.817Z,75584.00
2022-08-16T10:10:30.638Z,76704.00
2022-08-16T10:11:23.915Z,80384.00
2022-08-16T10:12:20.863Z,80832.00
2022-08-16T10:13:20.783Z,83744.00
2022-08-16T10:14:24.533Z,85728.00
2022-08-16T10:15:21.056Z,82368.00
2022-08-16T10:16:22.025Z,81280.00
2022-08-16T10:17:20.837Z,76736.00
2022-08-16T10:19:00.208Z,72032.00
2022-08-16T10:19:20.744Z,70400.00
2022-08-16T10:20:20.737Z,72384.00
2022-08-16T10:21:20.765Z,71680.00
2022-08-16T10:22:22.849Z,78816.00
2022-08-16T10:23:20.691Z,81248.00
2022-08-16T10:24:28.173Z,74976.00
2022-08-16T10:27:18.287Z,69696.00
2022-08-16T10:27:47.355Z,64480.00
2022-08-16T10:28:05.878Z,67712.00
2022-08-16T10:28:41.886Z,76736.00
2022-08-16T10:29:59.428Z,78656.00
2022-08-16T10:30:41.012Z,77504.00
2022-08-16T10:31:44.294Z,71808.00
2022-08-16T10:32:40.995Z,78464.00
2022-08-16T10:33:40.974Z,84096.00
2022-08-16T10:34:41.017Z,84512.00
2022-08-16T10:35:46.639Z,83904.00
2022-08-16T10:36:41.464Z,85824.00
2022-08-16T10:37:40.950Z,84224.00
2022-08-16T10:38:42.004Z,87328.00
2022-08-16T10:39:41.925Z,87616.00
2022-08-16T10:40:40.957Z,88160.00
2022-08-16T10:41:40.906Z,88704.00
2022-08-16T10:42:41.070Z,88672.00
2022-08-16T10:43:40.961Z,89984.00
2022-08-16T10:44:40.983Z,93664.00
2022-08-16T10:45:41.972Z,94720.00
2022-08-16T10:46:42.227Z,93568.00
2022-08-16T10:47:40.858Z,91232.00
2022-08-16T10:48:40.838Z,88864.00
2022-08-16T10:49:40.820Z,90176.00
2022-08-16T10:50:40.871Z,92224.00
2022-08-16T10:52:01.865Z,92160.00
2022-08-16T10:53:40.794Z,90464.00
2022-08-16T10:55:45.244Z,91648.00
2022-08-16T10:56:51.827Z,90816.00
2022-08-16T10:57:40.798Z,89568.00
2022-08-16T10:58:40.741Z,88160.00
2022-08-16T10:59:51.858Z,90912.00
2022-08-16T11:00:40.799Z,80896.00
2022-08-16T11:01:44.073Z,90496.00
2022-08-16T11:02:58.966Z,91072.00
2022-08-16T11:03:42.107Z,83744.00
2022-08-16T11:06:41.033Z,89984.00
2022-08-16T11:07:45.532Z,88000.00
2022-08-16T11:08:44.905Z,89664.00
2022-08-16T11:09:43.789Z,88512.00
2022-08-16T11:12:40.740Z,93376.00
2022-08-16T11:15:11.293Z,89120.00
2022-08-16T11:15:41.918Z,83872.00
2022-08-16T11:17:44.750Z,89024.00
2022-08-16T11:19:03.342Z,93056.00
2022-08-16T11:20:41.426Z,93408.00
2022-08-16T11:22:23.085Z,100352.00
2022-08-16T11:22:48.804Z,96096.00
2022-08-16T11:23:40.569Z,95776.00
2022-08-16T11:24:43.427Z,97376.00
2022-08-16T11:26:40.559Z,94688.00
2022-08-16T11:27:40.540Z,96224.00
2022-08-16T11:29:40.509Z,92928.00
2022-08-16T11:30:40.860Z,94496.00
2022-08-16T11:31:40.511Z,99072.00
2022-08-16T11:32:40.499Z,99872.00
2022-08-16T11:33:56.165Z,101632.00
2022-08-16T11:35:05.764Z,102656.00
2022-08-16T11:35:44.094Z,102336.00
2022-08-16T11:36:40.454Z,95680.00
2022-08-16T11:38:51.974Z,99552.00
2022-08-16T11:39:42.712Z,89600.00
2022-08-16T11:40:44.355Z,103360.00
2022-08-16T11:41:44.691Z,86752.00
2022-08-16T11:42:41.984Z,84128.00
2022-08-16T11:43:40.402Z,64288.00
2022-08-16T11:44:52.683Z,53472.00
2022-08-16T11:45:42.401Z,55520.00
2022-08-16T11:46:44.691Z,52768.00
2022-08-16T11:47:42.644Z,38272.00
2022-08-16T11:48:40.363Z,38976.00
2022-08-16T11:49:40.376Z,112480.00
2022-08-16T11:50:40.366Z,105120.00
2022-08-16T11:51:40.365Z,105408.00
2022-08-16T11:52:40.319Z,77536.00
2022-08-16T11:53:40.332Z,85376.00
2022-08-16T11:54:40.320Z,98944.00
2022-08-16T11:55:40.311Z,90432.00
2022-08-16T11:56:52.585Z,103456.00
2022-08-16T11:57:40.298Z,93088.00
2022-08-16T11:58:40.332Z,102112.00
2022-08-16T11:59:40.322Z,104544.00
2022-08-16T12:00:51.433Z,104800.00
2022-08-16T12:01:44.635Z,101280.00
2022-08-16T12:02:40.316Z,101504.00
2022-08-16T12:03:41.772Z,104992.00
2022-08-16T12:04:40.323Z,104000.00
2022-08-16T12:05:40.247Z,99680.00
2022-08-16T12:06:40.225Z,102592.00
2022-08-16T12:07:40.261Z,105664.00
2022-08-16T12:08:40.253Z,106752.00
2022-08-16T12:09:43.147Z,103328.00
2022-08-16T12:10:40.208Z,102016.00
2022-08-16T12:11:40.174Z,94720.00
2022-08-16T12:12:40.203Z,16196.00
2022-08-16T12:13:40.518Z,14940.00
2022-08-16T12:14:40.200Z,22528.00
2022-08-16T12:15:40.208Z,27040.00
2022-08-16T12:16:48.691Z,95168.00
2022-08-16T12:17:40.169Z,91552.00
2022-08-16T12:18:40.277Z,63328.00
2022-08-16T12:19:40.129Z,21376.00
2022-08-16T12:20:40.114Z,47552.00
2022-08-16T12:21:59.329Z,94816.00
2022-08-16T12:22:40.155Z,96800.00
2022-08-16T12:23:40.095Z,98176.00
2022-08-16T12:24:40.106Z,96800.00
2022-08-16T12:25:40.104Z,96128.00
2022-08-16T12:26:40.101Z,95936.00
2022-08-16T12:27:40.064Z,91456.00
2022-08-16T12:28:55.045Z,89504.00
2022-08-16T12:29:40.883Z,91872.00
2022-08-16T12:30:40.038Z,91776.00
2022-08-16T12:32:00.421Z,90080.00
2022-08-16T12:32:41.833Z,85696.00
2022-08-16T12:33:42.749Z,82272.00
2022-08-16T12:34:50.522Z,85504.00
2022-08-16T12:35:40.011Z,89056.00
2022-08-16T12:36:40.024Z,88288.00
2022-08-16T12:37:39.979Z,81792.00
2022-08-16T12:38:47.801Z,69696.00
2022-08-16T12:39:50.627Z,53568.00
2022-08-16T12:40:41.886Z,61600.00
2022-08-16T12:41:39.983Z,56800.00
2022-08-16T12:42:39.971Z,54048.00
2022-08-16T12:43:45.179Z,52448.00
2022-08-16T12:44:40.481Z,51360.00
2022-08-16T12:45:39.955Z,49920.00
2022-08-16T12:46:39.963Z,49568.00
2022-08-16T12:47:39.922Z,49952.00
2022-08-16T12:48:39.911Z,49056.00
2022-08-16T12:49:41.966Z,45888.00
2022-08-16T12:50:39.900Z,48672.00
2022-08-16T12:51:59.046Z,49472.00
2022-08-16T12:52:44.492Z,45024.00
2022-08-16T12:53:40.266Z,49664.00
2022-08-16T12:54:39.871Z,49408.00
2022-08-16T12:55:41.658Z,49632.00
2022-08-16T12:56:41.484Z,51072.00
